createdAt,value
2018-05-11T00:00:01.140Z,4.5
2018-05-11T00:05:06.163Z,4.4
2018-05-11T00:10:01.160Z,5.0
2018-05-11T00:15:01.162Z,5.2
2018-05-11T00:20:01.224Z,5.5
2018-05-11T00:25:06.151Z,5.7
2018-05-11T00:30:06.203Z,6.1
2018-05-11T00:35:11.130Z,5.8
2018-05-11T00:40:01.556Z,6.0
2018-05-11T00:45:01.149Z,6.5
2018-05-11T00:50:01.174Z,7.2
2018-05-11T01:15:01.401Z,9.6
2018-05-11T01:20:02.523Z,9.8
2018-05-11T01:25:01.326Z,9.9
2018-05-11T01:30:01.562Z,9.4
2018-05-11T01:35:01.755Z,9.2
2018-05-11T01:40:01.456Z,9.1
2018-05-11T01:45:02.513Z,8.5
2018-05-11T01:50:06.373Z,8.3
2018-05-11T01:55:06.387Z,8.4
2018-05-11T02:00:06.349Z,8.2
2018-05-11T02:05:02.397Z,7.8
2018-05-11T02:10:01.381Z,7.8
2018-05-11T02:15:01.369Z,7.5
2018-05-11T02:20:01.376Z,7.4
2018-05-11T02:25:01.369Z,7.5
2018-05-11T02:30:06.369Z,7.8
2018-05-11T02:40:01.399Z,8.0
2018-05-11T02:45:01.722Z,8.3
2018-05-11T02:50:01.439Z,8.2
2018-05-11T02:55:01.413Z,8.0
2018-05-11T03:00:01.334Z,8.3
2018-05-11T03:05:01.333Z,8.3
2018-05-11T03:10:01.384Z,8.5
2018-05-11T03:15:01.434Z,8.8
2018-05-11T03:20:06.339Z,9.4
2018-05-11T03:25:06.371Z,9.6
2018-05-11T03:30:01.394Z,9.9
2018-05-11T03:35:06.346Z,10.0
2018-05-11T03:40:06.401Z,10.5
2018-05-11T03:45:01.663Z,10.9
2018-05-11T03:55:06.419Z,11.8
2018-05-11T04:00:02.914Z,12.4
2018-05-11T04:25:00.823Z,14.6
2018-05-11T04:30:00.924Z,13.3
2018-05-11T04:35:00.758Z,12.9
2018-05-11T04:40:00.884Z,13.7
2018-05-11T04:45:00.749Z,14.0
2018-05-11T04:50:05.824Z,13.5
2018-05-11T05:00:00.889Z,14.1
2018-05-11T05:05:01.844Z,13.5
2018-05-11T05:10:00.881Z,12.8
2018-05-11T05:15:05.767Z,12.9
2018-05-11T05:25:00.872Z,12.3
2018-05-11T05:30:00.956Z,12.0
2018-05-11T05:35:00.765Z,12.0
2018-05-11T05:40:00.884Z,11.6
2018-05-11T05:45:00.764Z,10.8
2018-05-11T05:50:00.761Z,10.2
2018-05-11T05:55:00.766Z,9.6
2018-05-11T06:00:01.357Z,8.9
2018-05-11T06:05:00.802Z,8.0
2018-05-11T06:10:00.945Z,7.9
2018-05-11T06:15:00.805Z,7.4
2018-05-11T06:20:01.092Z,8.1
2018-05-11T06:25:00.768Z,7.9
2018-05-11T06:30:00.960Z,7.5
2018-05-11T06:35:00.826Z,7.3
2018-05-11T06:40:00.857Z,7.1
2018-05-11T06:45:00.805Z,5.7
2018-05-11T06:50:01.576Z,5.4
2018-05-11T06:55:01.002Z,5.4
2018-05-11T07:00:00.988Z,5.0
2018-05-11T07:05:05.840Z,4.6
2018-05-11T07:10:05.992Z,4.2
2018-05-11T07:15:11.078Z,3.7
2018-05-11T07:20:01.582Z,3.3
2018-05-11T07:25:00.781Z,2.9
2018-05-11T07:30:00.952Z,2.6
2018-05-11T07:35:01.146Z,2.4
2018-05-11T07:40:00.976Z,2.2
2018-05-11T07:45:00.795Z,2.0
2018-05-11T07:50:00.908Z,2.0
2018-05-11T07:55:05.813Z,1.8
2018-05-11T08:00:00.947Z,1.6
2018-05-11T08:05:00.781Z,1.6
2018-05-11T08:10:00.852Z,1.5
2018-05-11T08:15:00.790Z,1.4
2018-05-11T08:20:00.946Z,1.6
2018-05-11T08:30:00.922Z,1.8
2018-05-11T08:35:00.835Z,1.8
2018-05-11T08:40:00.887Z,1.9
2018-05-11T08:45:00.811Z,1.8
2018-05-11T08:50:05.844Z,1.6
2018-05-11T09:00:00.944Z,1.8
2018-05-11T09:05:00.878Z,1.8
2018-05-11T09:10:00.896Z,1.6
2018-05-11T09:15:00.809Z,1.8
2018-05-11T09:25:01.063Z,1.8
2018-05-11T09:30:00.883Z,1.8
2018-05-11T09:35:05.795Z,2.0
2018-05-11T09:40:01.020Z,2.0
2018-05-11T09:45:00.793Z,1.9
2018-05-11T09:50:00.888Z,1.8
2018-05-11T09:55:06.249Z,2.0
2018-05-11T10:00:00.864Z,1.9
2018-05-11T10:05:00.827Z,1.7
2018-05-11T10:10:00.978Z,1.7
2018-05-11T10:15:00.835Z,1.6
2018-05-11T10:20:00.954Z,1.2
2018-05-11T10:25:00.811Z,1.2
2018-05-11T10:30:02.390Z,1.4
2018-05-11T10:35:00.836Z,1.7
2018-05-11T10:45:00.867Z,2.2
2018-05-11T10:55:00.853Z,2.4
2018-05-11T11:00:00.861Z,2.2
2018-05-11T11:05:00.795Z,2.0
2018-05-11T11:10:00.997Z,2.2
2018-05-11T11:15:00.802Z,2.2
2018-05-11T11:20:01.333Z,2.3
2018-05-11T11:25:00.798Z,2.4
2018-05-11T11:30:05.931Z,2.6
2018-05-11T11:35:00.803Z,2.2
2018-05-11T11:40:00.876Z,2.2
2018-05-11T11:45:01.093Z,2.0
2018-05-11T11:50:01.609Z,2.1
2018-05-11T11:55:00.794Z,1.9
2018-05-11T12:00:00.898Z,2.6
2018-05-11T12:05:01.829Z,2.6
2018-05-11T12:15:00.924Z,2.8
2018-05-11T12:20:00.844Z,2.8
2018-05-11T12:30:00.935Z,3.0
2018-05-11T12:35:01.320Z,2.8
2018-05-11T12:40:00.904Z,2.6
2018-05-11T12:45:00.884Z,2.6
2018-05-11T12:55:00.881Z,2.2
2018-05-11T13:00:00.945Z,2.3
2018-05-11T13:10:00.999Z,2.8
2018-05-11T13:15:00.840Z,2.8
2018-05-11T13:20:00.823Z,3.0
2018-05-11T13:25:00.824Z,3.0
2018-05-11T13:30:01.025Z,2.9
2018-05-11T13:35:00.837Z,2.7
2018-05-11T13:40:00.919Z,2.7
2018-05-11T13:45:00.823Z,2.5
2018-05-11T13:50:00.890Z,2.6
2018-05-11T14:00:01.013Z,2.6
2018-05-11T14:05:00.835Z,2.7
2018-05-11T14:10:00.989Z,2.9
2018-05-11T14:15:00.962Z,3.0
2018-05-11T14:20:01.004Z,3.1
2018-05-11T14:25:01.333Z,3.1
2018-05-11T14:30:01.088Z,3.2
2018-05-11T14:35:00.870Z,3.5
2018-05-11T14:40:01.012Z,3.5
2018-05-11T14:45:00.935Z,3.7
2018-05-11T14:50:00.940Z,3.8
2018-05-11T14:55:00.838Z,3.6
2018-05-11T15:00:00.966Z,3.5
2018-05-11T15:05:00.872Z,3.4
2018-05-11T15:10:01.235Z,3.3
2018-05-11T15:15:01.098Z,3.4
2018-05-11T15:20:01.016Z,3.4
2018-05-11T15:30:00.975Z,3.6
2018-05-11T15:35:00.854Z,3.5
2018-05-11T15:45:00.984Z,3.3
2018-05-11T15:50:01.031Z,3.8
2018-05-11T15:55:00.882Z,3.7
2018-05-11T16:00:01.005Z,3.7
2018-05-11T16:05:00.863Z,3.6
2018-05-11T16:10:01.014Z,3.9
2018-05-11T16:15:00.927Z,3.7
2018-05-11T16:20:01.029Z,4.0
2018-05-11T16:25:00.885Z,4.4
2018-05-11T16:30:00.931Z,5.2
2018-05-11T16:35:00.894Z,5.3
2018-05-11T16:40:00.927Z,5.2
2018-05-11T16:45:00.891Z,5.0
2018-05-11T16:50:01.022Z,4.8
2018-05-11T16:55:01.895Z,4.1
2018-05-11T17:00:00.929Z,3.8
2018-05-11T17:05:00.876Z,3.8
2018-05-11T17:10:01.117Z,3.9
2018-05-11T17:15:00.851Z,3.7
2018-05-11T17:20:01.074Z,3.9
2018-05-11T17:25:00.959Z,3.8
2018-05-11T17:30:01.288Z,3.6
2018-05-11T17:35:00.867Z,3.4
2018-05-11T17:40:01.017Z,3.6
2018-05-11T17:45:00.875Z,3.5
2018-05-11T17:50:00.968Z,3.6
2018-05-11T17:55:00.977Z,3.5
2018-05-11T18:00:01.045Z,3.3
2018-05-11T18:05:00.916Z,3.3
2018-05-11T18:10:01.369Z,3.1
2018-05-11T18:15:00.884Z,3.0
2018-05-11T18:20:00.951Z,3.2
2018-05-11T18:25:00.957Z,3.6
2018-05-11T18:30:01.001Z,3.6
2018-05-11T18:35:00.899Z,4.2
2018-05-11T18:40:00.962Z,6.3
2018-05-11T18:45:00.889Z,6.4
2018-05-11T18:50:01.019Z,6.8
2018-05-11T18:55:00.898Z,7.2
2018-05-11T19:00:01.036Z,7.1
2018-05-11T19:05:00.898Z,5.7
2018-05-11T19:10:00.992Z,6.0
2018-05-11T19:15:00.903Z,5.8
2018-05-11T19:20:00.969Z,5.6
2018-05-11T19:25:00.937Z,5.2
2018-05-11T19:30:01.049Z,5.1
2018-05-11T19:35:00.946Z,4.7
2018-05-11T19:40:00.984Z,4.8
2018-05-11T19:45:01.024Z,4.9
2018-05-11T19:50:00.992Z,5.2
2018-05-11T19:55:00.937Z,5.4
2018-05-11T20:00:01.057Z,5.7
2018-05-11T20:05:00.952Z,5.4
2018-05-11T20:10:01.302Z,5.5
2018-05-11T20:15:00.997Z,5.6
2018-05-11T20:20:00.987Z,5.5
2018-05-11T20:25:01.523Z,5.4
2018-05-11T20:30:00.987Z,5.2
2018-05-11T20:35:00.952Z,5.1
2018-05-11T20:40:01.054Z,4.9
2018-05-11T20:45:00.952Z,4.9
2018-05-11T20:50:01.307Z,5.2
2018-05-11T20:55:00.919Z,5.6
2018-05-11T21:00:00.930Z,5.9
2018-05-11T21:05:00.921Z,5.9
2018-05-11T21:10:01.081Z,6.0
2018-05-11T21:15:00.950Z,6.2
2018-05-11T21:20:01.053Z,6.1
2018-05-11T21:25:00.893Z,6.2
2018-05-11T21:30:01.018Z,6.6
2018-05-11T21:35:00.951Z,6.6
2018-05-11T21:40:01.019Z,6.4
2018-05-11T21:45:00.936Z,6.6
2018-05-11T21:50:01.101Z,6.8
2018-05-11T21:55:01.035Z,7.2
2018-05-11T22:00:01.341Z,7.2
2018-05-11T22:05:00.972Z,7.6
2018-05-11T22:10:01.131Z,7.6
2018-05-11T22:15:00.983Z,7.6
2018-05-11T22:20:01.106Z,7.0
2018-05-11T22:25:00.977Z,7.8
2018-05-11T22:30:00.984Z,7.6
2018-05-11T22:35:00.959Z,8.0
2018-05-11T22:40:01.047Z,7.7
2018-05-11T22:45:00.983Z,8.1
2018-05-11T22:50:01.088Z,7.8
2018-05-11T22:55:00.956Z,8.0
2018-05-11T23:00:01.055Z,7.8
2018-05-11T23:05:00.957Z,8.0
2018-05-11T23:10:01.223Z,7.9
2018-05-11T23:15:00.937Z,7.6
2018-05-11T23:20:01.117Z,7.6
2018-05-11T23:25:00.996Z,7.2
2018-05-11T23:30:01.006Z,7.3
2018-05-11T23:40:01.056Z,6.9
2018-05-11T23:45:01.492Z,7.1
2018-05-11T23:55:01.256Z,7.0
